Aérodrome :
LOGIN :

S'inscrire | Disclaimer

   EN    FR    IT 

 










Légende :    VFR   VFR Marginal   IFR   IFR Intensif   IFR Très Intensif
Visi : 
Plafond : 
>= 8 km
>= 3000ft
5 à 8 km
1000 à 3000 ft
1500m à 5 km
500 à 1000 ft
800 à 1500m
200 à 500 ft
< 800m
< 200 ft
Symboles :   Orages  Brouillard  Fortes neiges  Fortes précipitations  Vent > 20 kt
SIGMETs :   Divers  Orages  Givrage  Turbulence  Onde Orograph.  Cendres Volcan.







- Altitude de l'aérodrome : 1455 ft


ETIH - Hohenfels Army Air Field

DERNIER METAR :
  • 261659Z AUTO VRB04KT 9999 OVC016 04/03 A2985 RMK AO2 SLP129

METARs EXPIRÉS :
  • 261626Z AUTO VRB04KT 9999 OVC015 04/03 A2985 RMK AO2
  • 261614Z AUTO 04005KT 9999 OVC014 04/03 A2986 RMK AO2
  • 261600Z AUTO VRB03KT 9999 SCT010 OVC015 04/03 A2986 RMK AO2
  • 261553Z AUTO 00000KT 9999 OVC014 04/03 A2986 RMK AO2
  • 261459Z AUTO 00000KT 9999 OVC010 04/03 A2985 RMK AO2 SLP129 52007

TAF AMD TAF ETIH
Valide du 26 à 16h jusqu'au 27 à 19h UTC


261614Z 2616/2719 03009KT 9999 BKN015 610209 611107 QNH2985INS
TEMPO 2616/2618 BKN010
BECMG 2617/2618 02006KT 9999 BKN020 610209 611107 QNH2985INS
BECMG 2700/2701 29003KT 8000 BR BKN020 BKN080 610209 611107 QNH2988INS
BECMG 2706/2707 06009KT 9999 NSW SCT020 BKN060 610609 611502 QNH2993INS TX05/2616Z TNM01/2703Z
Pas de NOTAMs connus pour ce terrain.



MET'MAP, la Météo Aéronautique d'un coup d'oeil ! - Copyright ORBIFLY Décembre 2007 - Disclaimer

ORBIFLY MET'MAP TEAM :

Programmation & Développement : Alexandra Zaïnal
Conception & Développement : Baudouin d'Aumeries
Co-Programmation & Développement : Marc-Olivier Méhu
Soutien technique & logistique : Manuel Goepfert

Contact : metmap@orbifly.com




SOURCES & CREDITS :

   NOAA